BIKF

Keflavik International Airport

Reykjavík, Iceland
METAR BIKF 201500Z 23023KT 9999 VCSH SCT018CB BKN037 01/M03 Q1013 R88/D
Observed Flight Rules
Feb-20 @ 15:00 UTC (5 hours ago) Visual Flight Rules
Wind Visibility Clouds
230° at 23 knots 10,000+ meters
  • Scattered at 1,800' AGL
  • Broken at 3,700' AGL
Temperatures Readings
Current 1°C / 34°F
Dewpoint -3°C / 27°F
Humidity 75%
Altimeter 29.91" Hg
Pressure 1013 hPa
Elevation 54
METAR BIKF 201500Z 23023KT 9999 VCSH SCT018CB BKN037 01/M03 Q1013 R88/D
Observed Flight Rules
Feb-20 @ 15:00 UTC
(5 hours ago)
VFR
Wind Visibility
230° at 23 knots 10,000+ meters
Clouds
  • Scattered at 1,800' AGL
  • Broken at 3,700' AGL
Temperature Dewpoint
1°C / 34°F -3°C / 27°F
Humidity Altimeter Pressure
75% 29.91" Hg 1013 hPa